PHENX84 VNLK-VNLK
Flight info
| Callsign | PHENX84 |
|---|---|
| Flight time | N/A |
| Altitude | 15000 |
| Route | DCT |
| Aircraft | F18H/L-SFG/C |
Departure
| Time | 2026-04-07 12:38 |
|---|---|
| Airport | Tenzing-Hillary Airport (VNLK) |
Arrival
| Time | N/A |
|---|---|
| Airport | Tenzing-Hillary Airport (VNLK) |
| Time | Latitude | Longitude | Altitude | Speed | Heading |
|---|---|---|---|---|---|
| 2026-04-07 12:31 | 27.68751 | 86.73159 | 9517 ft | 0 kts | 276° |
| 2026-04-07 12:34 | 27.68751 | 86.73158 | 9517 ft | 1 kts | 276° |
| 2026-04-07 12:34 | 27.68751 | 86.73162 | 9517 ft | 1 kts | 286° |
| 2026-04-07 12:34 | 27.68748 | 86.73173 | 9517 ft | 1 kts | 312° |
| 2026-04-07 12:34 | 27.68745 | 86.73177 | 9517 ft | 0 kts | 327° |
| 2026-04-07 12:35 | 27.68752 | 86.73175 | 9517 ft | 1 kts | 341° |
| 2026-04-07 12:35 | 27.68783 | 86.73164 | 9515 ft | 2 kts | 321° |
| 2026-04-07 12:35 | 27.68783 | 86.73148 | 9515 ft | 0 kts | 239° |
| 2026-04-07 12:36 | 27.68787 | 86.73155 | 9515 ft | 1 kts | 239° |
| 2026-04-07 12:36 | 27.68792 | 86.73165 | 9515 ft | 1 kts | 239° |
| 2026-04-07 12:36 | 27.68797 | 86.73175 | 9512 ft | 1 kts | 239° |
| 2026-04-07 12:36 | 27.68799 | 86.73178 | 9512 ft | 0 kts | 239° |
| 2026-04-07 12:37 | 27.68500 | 86.72604 | 9234 ft | 180 kts | 238° |
| 2026-04-07 12:38 | 27.67650 | 86.71284 | 9288 ft | 264 kts | 225° |
| 2026-04-07 12:38 | 27.65814 | 86.69948 | 10644 ft | 376 kts | 204° |
| 2026-04-07 12:38 | 27.63199 | 86.68854 | 12196 ft | 398 kts | 199° |
| 2026-04-07 12:38 | 27.60634 | 86.67787 | 13161 ft | 387 kts | 202° |
| 2026-04-07 12:39 | 27.58155 | 86.66792 | 13816 ft | 363 kts | 174° |
| 2026-04-07 12:39 | 27.56394 | 86.68422 | 12908 ft | 355 kts | 99° |
| 2026-04-07 12:39 | 27.57468 | 86.70673 | 11631 ft | 342 kts | 14° |
| 2026-04-07 12:39 | 27.59936 | 86.70643 | 10892 ft | 371 kts | 354° |
| 2026-04-07 12:40 | 27.62596 | 86.70365 | 10464 ft | 398 kts | 356° |
| 2026-04-07 12:40 | 27.65426 | 86.70438 | 10202 ft | 416 kts | 10° |
| 2026-04-07 12:40 | 27.68207 | 86.71406 | 10210 ft | 423 kts | 15° |
| 2026-04-07 12:40 | 27.71096 | 86.71728 | 10718 ft | 415 kts | 357° |
| 2026-04-07 12:41 | 27.73968 | 86.71534 | 11193 ft | 413 kts | 359° |
| 2026-04-07 12:41 | 27.76763 | 86.71799 | 12090 ft | 394 kts | 8° |
| 2026-04-07 12:41 | 27.79379 | 86.72408 | 13071 ft | 375 kts | 13° |
| 2026-04-07 12:41 | 27.81352 | 86.71644 | 13964 ft | 287 kts | 276° |
| 2026-04-07 12:42 | 27.80203 | 86.70193 | 12299 ft | 304 kts | 146° |
| 2026-04-07 12:42 | 27.78494 | 86.71924 | 11069 ft | 345 kts | 150° |
| 2026-04-07 12:42 | 27.76266 | 86.72078 | 10868 ft | 337 kts | 197° |
| 2026-04-07 12:42 | 27.73932 | 86.71264 | 10269 ft | 373 kts | 195° |
| 2026-04-07 12:43 | 27.71256 | 86.70958 | 9829 ft | 398 kts | 179° |
| 2026-04-07 12:43 | 27.68413 | 86.71174 | 9396 ft | 422 kts | 175° |
| 2026-04-07 12:43 | 27.65500 | 86.70707 | 8980 ft | 433 kts | 202° |
| 2026-04-07 12:43 | 27.62580 | 86.69436 | 7557 ft | 472 kts | 196° |
| 2026-04-07 12:44 | 27.59413 | 86.68163 | 6870 ft | 481 kts | 201° |
| 2026-04-07 12:44 | 27.56206 | 86.67888 | 7154 ft | 460 kts | 160° |
| 2026-04-07 12:44 | 27.53533 | 86.69309 | 8959 ft | 414 kts | 159° |
| 2026-04-07 12:44 | 27.50822 | 86.70407 | 8307 ft | 403 kts | 115° |
| 2026-04-07 12:45 | 27.51857 | 86.72118 | 8732 ft | 283 kts | 17° |
| 2026-04-07 12:45 | 27.53760 | 86.71577 | 7811 ft | 311 kts | 324° |
| 2026-04-07 12:45 | 27.55391 | 86.69840 | 7680 ft | 329 kts | 309° |
| 2026-04-07 12:45 | 27.57182 | 86.68243 | 7776 ft | 339 kts | 346° |
| 2026-04-07 12:46 | 27.59531 | 86.68522 | 7627 ft | 355 kts | 16° |
| 2026-04-07 12:46 | 27.61917 | 86.69413 | 7815 ft | 364 kts | 19° |
| 2026-04-07 12:46 | 27.64327 | 86.70252 | 8457 ft | 362 kts | 17° |
| 2026-04-07 12:46 | 27.66735 | 86.71082 | 9080 ft | 362 kts | 17° |
| 2026-04-07 12:47 | 27.69135 | 86.71683 | 10122 ft | 340 kts | 5° |
| 2026-04-07 12:47 | 27.71438 | 86.71789 | 11103 ft | 324 kts | 1° |
| 2026-04-07 12:47 | 27.73647 | 86.71888 | 11869 ft | 313 kts | 3° |
| 2026-04-07 12:47 | 27.75936 | 86.72063 | 12269 ft | 381 kts | 3° |
| 2026-04-07 12:48 | 27.77951 | 86.72206 | 12639 ft | 479 kts | 3° |
| 2026-04-07 12:48 | 27.81572 | 86.73154 | 13773 ft | 589 kts | 32° |
| 2026-04-07 12:48 | 27.84452 | 86.76344 | 14908 ft | 572 kts | 53° |
| 2026-04-07 12:48 | 27.86616 | 86.79990 | 15643 ft | 542 kts | 58° |
| 2026-04-07 12:49 | 27.88631 | 86.83445 | 16751 ft | 515 kts | 57° |
| 2026-04-07 12:49 | 27.90394 | 86.86987 | 18107 ft | 525 kts | 64° |
| 2026-04-07 12:49 | 27.92024 | 86.90909 | 20016 ft | 578 kts | 65° |
| 2026-04-07 12:49 | 27.93372 | 86.95256 | 21990 ft | 585 kts | 77° |
| 2026-04-07 12:50 | 27.93926 | 86.99690 | 23214 ft | 551 kts | 78° |
| 2026-04-07 12:50 | 27.95470 | 87.03157 | 25412 ft | 464 kts | 46° |
| 2026-04-07 12:50 | 27.97944 | 87.04872 | 25568 ft | 404 kts | 356° |
| 2026-04-07 12:50 | 28.00251 | 87.03546 | 24417 ft | 368 kts | 303° |
| 2026-04-07 12:51 | 28.01394 | 87.01040 | 24615 ft | 336 kts | 290° |
| 2026-04-07 12:51 | 28.01956 | 86.98645 | 25475 ft | 295 kts | 280° |
| 2026-04-07 12:51 | 28.02005 | 86.96476 | 25992 ft | 257 kts | 265° |
| 2026-04-07 12:51 | 28.01597 | 86.94734 | 26470 ft | 205 kts | 250° |
| 2026-04-07 12:52 | 28.00921 | 86.93532 | 26611 ft | 159 kts | 239° |
| 2026-04-07 12:52 | 28.00224 | 86.92298 | 25204 ft | 459 kts | 261° |
| 2026-04-07 12:52 | 27.99758 | 86.89663 | 26083 ft | 324 kts | 257° |
| 2026-04-07 12:52 | 27.98936 | 86.87374 | 26147 ft | 311 kts | 240° |
| 2026-04-07 12:53 | 27.97231 | 86.85798 | 25320 ft | 344 kts | 206° |
| 2026-04-07 12:53 | 27.94699 | 86.85933 | 23577 ft | 413 kts | 151° |
| 2026-04-07 12:53 | 27.93104 | 86.88582 | 22474 ft | 419 kts | 110° |
| 2026-04-07 12:53 | 27.92277 | 86.91658 | 22757 ft | 396 kts | 103° |
| 2026-04-07 12:54 | 27.92011 | 86.94635 | 23449 ft | 386 kts | 79° |
| 2026-04-07 12:54 | 27.92958 | 86.97440 | 23443 ft | 380 kts | 54° |
| 2026-04-07 12:54 | 27.94662 | 86.99722 | 23166 ft | 368 kts | 21° |
| 2026-04-07 12:54 | 27.96678 | 86.99245 | 23420 ft | 323 kts | 311° |
| 2026-04-07 12:55 | 27.98029 | 86.96913 | 23955 ft | 373 kts | 293° |
| 2026-04-07 12:55 | 27.98684 | 86.94260 | 26866 ft | 327 kts | 280° |
| 2026-04-07 12:55 | 27.98948 | 86.91886 | 29139 ft | 294 kts | 274° |
| 2026-04-07 12:55 | 27.99632 | 86.90423 | 25067 ft | 285 kts | 325° |
| 2026-04-07 12:56 | 28.02301 | 86.89095 | 19964 ft | 557 kts | 338° |
| 2026-04-07 12:56 | 28.06439 | 86.87711 | 19002 ft | 660 kts | 344° |
| 2026-04-07 12:56 | 28.10555 | 86.86472 | 19599 ft | 566 kts | 343° |
| 2026-04-07 12:56 | 28.14120 | 86.85351 | 19659 ft | 501 kts | 341° |
| 2026-04-07 12:57 | 28.17246 | 86.83944 | 18012 ft | 475 kts | 330° |
| 2026-04-07 12:57 | 28.20182 | 86.82406 | 16874 ft | 444 kts | 341° |
| 2026-04-07 12:57 | 28.23143 | 86.81834 | 16974 ft | 431 kts | 359° |
| 2026-04-07 12:57 | 28.25789 | 86.83229 | 18412 ft | 437 kts | 66° |
| 2026-04-07 12:58 | 28.26354 | 86.86899 | 19637 ft | 485 kts | 110° |
| 2026-04-07 12:58 | 28.23974 | 86.88617 | 19840 ft | 415 kts | 166° |
| 2026-04-07 12:58 | 28.21044 | 86.89433 | 20182 ft | 459 kts | 174° |
| 2026-04-07 12:58 | 28.17779 | 86.89339 | 21389 ft | 482 kts | 192° |
| 2026-04-07 12:59 | 28.14599 | 86.88556 | 23520 ft | 465 kts | 196° |
| 2026-04-07 12:59 | 28.11343 | 86.87686 | 23679 ft | 498 kts | 196° |
| 2026-04-07 12:59 | 28.07855 | 86.86736 | 23112 ft | 539 kts | 196° |
| 2026-04-07 12:59 | 28.03948 | 86.85440 | 21889 ft | 601 kts | 203° |
| 2026-04-07 13:00 | 28.00080 | 86.83755 | 20498 ft | 593 kts | 201° |
| 2026-04-07 13:00 | 27.96198 | 86.82223 | 19531 ft | 589 kts | 198° |
| 2026-04-07 13:00 | 27.92274 | 86.80953 | 18781 ft | 585 kts | 195° |
| 2026-04-07 13:00 | 27.88383 | 86.79612 | 17752 ft | 583 kts | 203° |
| 2026-04-07 13:01 | 27.84917 | 86.77322 | 15984 ft | 599 kts | 220° |
| 2026-04-07 13:01 | 27.81988 | 86.73945 | 12950 ft | 609 kts | 228° |
| 2026-04-07 13:01 | 27.78788 | 86.71143 | 13638 ft | 549 kts | 199° |
| 2026-04-07 13:01 | 27.75048 | 86.70802 | 13444 ft | 543 kts | 176° |
| 2026-04-07 13:02 | 27.71149 | 86.71036 | 11254 ft | 575 kts | 177° |
| 2026-04-07 13:02 | 27.67095 | 86.71032 | 9437 ft | 589 kts | 185° |
| 2026-04-07 13:02 | 27.63073 | 86.70148 | 8119 ft | 590 kts | 195° |
| 2026-04-07 13:02 | 27.59365 | 86.69626 | 7785 ft | 463 kts | 246° |
| 2026-04-07 13:03 | 27.57755 | 86.67014 | 7626 ft | 350 kts | 226° |
| 2026-04-07 13:03 | 27.58233 | 86.65730 | 9805 ft | 205 kts | 27° |
| 2026-04-07 13:03 | 27.59213 | 86.67201 | 8032 ft | 291 kts | 47° |
| 2026-04-07 13:03 | 27.60865 | 86.68798 | 8249 ft | 316 kts | 28° |
| 2026-04-07 13:04 | 27.62896 | 86.69705 | 9394 ft | 302 kts | 19° |
| 2026-04-07 13:04 | 27.64659 | 86.70383 | 10042 ft | 234 kts | 17° |
| 2026-04-07 13:04 | 27.66029 | 86.70784 | 9995 ft | 178 kts | 7° |
| 2026-04-07 13:04 | 27.67110 | 86.70942 | 9451 ft | 147 kts | 18° |
| 2026-04-07 13:05 | 27.68048 | 86.71715 | 9157 ft | 171 kts | 57° |
| 2026-04-07 13:05 | 27.68934 | 86.74080 | 11522 ft | 193 kts | 82° |
| 2026-04-07 13:05 | 27.68587 | 86.75297 | 12458 ft | 194 kts | 159° |
| 2026-04-07 13:06 | 27.67385 | 86.74221 | 10532 ft | 318 kts | 252° |
| 2026-04-07 13:06 | 27.66781 | 86.71581 | 9185 ft | 381 kts | 246° |
| 2026-04-07 13:06 | 27.64756 | 86.69143 | 10298 ft | 403 kts | 238° |
| 2026-04-07 13:06 | 27.65867 | 86.68102 | 12641 ft | 268 kts | 30° |
| 2026-04-07 13:07 | 27.67067 | 86.69642 | 11267 ft | 271 kts | 59° |
| 2026-04-07 13:07 | 27.67982 | 86.71588 | 9733 ft | 283 kts | 60° |
| 2026-04-07 13:07 | 27.69292 | 86.74053 | 11933 ft | 469 kts | 57° |
| 2026-04-07 13:07 | 27.70453 | 86.76069 | 15381 ft | 412 kts | 56° |
| 2026-04-07 13:08 | 27.71673 | 86.78804 | 19491 ft | 343 kts | 127° |
| 2026-04-07 13:08 | 27.69868 | 86.80210 | 18827 ft | 362 kts | 167° |
| 2026-04-07 13:08 | 27.67161 | 86.80696 | 16268 ft | 426 kts | 181° |
| 2026-04-07 13:08 | 27.63597 | 86.80609 | 13361 ft | 592 kts | 185° |
| 2026-04-07 13:09 | 27.60131 | 86.78357 | 10471 ft | 597 kts | 245° |
| 2026-04-07 13:09 | 27.59450 | 86.74248 | 12368 ft | 494 kts | 266° |
| 2026-04-07 13:09 | 27.59166 | 86.70501 | 9192 ft | 460 kts | 289° |
| 2026-04-07 13:09 | 27.61687 | 86.69501 | 6644 ft | 410 kts | 9° |
| 2026-04-07 13:10 | 27.64241 | 86.70031 | 7309 ft | 338 kts | 13° |
| 2026-04-07 13:10 | 27.66277 | 86.70659 | 7644 ft | 275 kts | 18° |
| 2026-04-07 13:10 | 27.67716 | 86.71359 | 8678 ft | 188 kts | 24° |
| 2026-04-07 13:10 | 27.68753 | 86.71491 | 9480 ft | 135 kts | 333° |
| 2026-04-07 13:11 | 27.69370 | 86.70597 | 9065 ft | 447 kts | 267° |
| 2026-04-07 13:11 | 27.68740 | 86.68599 | 12291 ft | 265 kts | 236° |
| 2026-04-07 13:11 | 27.67718 | 86.67349 | 13956 ft | 205 kts | 210° |
| 2026-04-07 13:11 | 27.66518 | 86.67289 | 13524 ft | 167 kts | 153° |
| 2026-04-07 13:12 | 27.65844 | 86.68534 | 11107 ft | 228 kts | 90° |
| 2026-04-07 13:12 | 27.66552 | 86.70288 | 8988 ft | 278 kts | 41° |
| 2026-04-07 13:12 | 27.68048 | 86.71457 | 8864 ft | 210 kts | 73° |
| 2026-04-07 13:12 | 27.67803 | 86.74183 | 10478 ft | 380 kts | 156° |
| 2026-04-07 13:13 | 27.66256 | 86.72692 | 11589 ft | 332 kts | 238° |
| 2026-04-07 13:13 | 27.65397 | 86.70643 | 10612 ft | 259 kts | 307° |
| 2026-04-07 13:13 | 27.66775 | 86.70592 | 9579 ft | 217 kts | 25° |
| 2026-04-07 13:13 | 27.67950 | 86.71476 | 9173 ft | 190 kts | 60° |
| 2026-04-07 13:14 | 27.68573 | 86.72703 | 9889 ft | 462 kts | 47° |
| 2026-04-07 13:14 | 27.69267 | 86.74658 | 13077 ft | 469 kts | 77° |
| 2026-04-07 13:14 | 27.68144 | 86.76796 | 13816 ft | 319 kts | 193° |
| 2026-04-07 13:14 | 27.67133 | 86.74749 | 10955 ft | 382 kts | 261° |
| 2026-04-07 13:15 | 27.67010 | 86.71571 | 10032 ft | 389 kts | 297° |
| 2026-04-07 13:15 | 27.68629 | 86.71269 | 9685 ft | 229 kts | 85° |
| 2026-04-07 13:15 | 27.67727 | 86.72245 | 10018 ft | 338 kts | 169° |